sensor_id;sensor_type;location;lat;lon;timestamp;P1;durP1;ratioP1;P2;durP2;ratioP2
18190;SDS011;47004;51.366;12.348;2022-07-23T00:00:34;4.63;;;3.93;;
18190;SDS011;47004;51.366;12.348;2022-07-23T00:02:36;4.50;;;3.87;;
18190;SDS011;47004;51.366;12.348;2022-07-23T00:04:38;5.60;;;4.03;;
18190;SDS011;47004;51.366;12.348;2022-07-23T00:06:40;5.13;;;3.97;;
18190;SDS011;47004;51.366;12.348;2022-07-23T00:08:42;4.60;;;4.00;;
18190;SDS011;47004;51.366;12.348;2022-07-23T00:10:44;5.60;;;4.10;;
18190;SDS011;47004;51.366;12.348;2022-07-23T00:12:46;5.20;;;4.20;;
18190;SDS011;47004;51.366;12.348;2022-07-23T00:14:49;5.40;;;3.90;;
18190;SDS011;47004;51.366;12.348;2022-07-23T00:16:51;4.80;;;4.00;;
18190;SDS011;47004;51.366;12.348;2022-07-23T00:18:53;4.80;;;3.83;;
18190;SDS011;47004;51.366;12.348;2022-07-23T00:20:55;5.13;;;4.10;;
18190;SDS011;47004;51.366;12.348;2022-07-23T00:22:57;4.23;;;3.67;;
18190;SDS011;47004;51.366;12.348;2022-07-23T00:24:59;4.93;;;4.00;;
18190;SDS011;47004;51.366;12.348;2022-07-23T00:27:01;4.40;;;3.80;;
18190;SDS011;47004;51.366;12.348;2022-07-23T00:29:03;5.57;;;4.23;;
18190;SDS011;47004;51.366;12.348;2022-07-23T00:31:06;4.77;;;4.20;;
18190;SDS011;47004;51.366;12.348;2022-07-23T00:33:08;6.40;;;4.03;;
18190;SDS011;47004;51.366;12.348;2022-07-23T00:35:10;5.13;;;4.07;;
18190;SDS011;47004;51.366;12.348;2022-07-23T00:37:12;5.13;;;4.20;;
18190;SDS011;47004;51.366;12.348;2022-07-23T00:39:14;6.00;;;4.30;;
18190;SDS011;47004;51.366;12.348;2022-07-23T00:41:16;5.03;;;4.40;;
18190;SDS011;47004;51.366;12.348;2022-07-23T00:43:19;5.57;;;4.17;;
18190;SDS011;47004;51.366;12.348;2022-07-23T00:45:22;5.40;;;4.20;;
18190;SDS011;47004;51.366;12.348;2022-07-23T00:47:25;5.60;;;4.10;;
18190;SDS011;47004;51.366;12.348;2022-07-23T00:49:29;4.53;;;3.90;;
18190;SDS011;47004;51.366;12.348;2022-07-23T00:51:31;5.33;;;4.47;;
18190;SDS011;47004;51.366;12.348;2022-07-23T00:53:34;5.63;;;4.30;;
18190;SDS011;47004;51.366;12.348;2022-07-23T00:55:36;5.50;;;4.33;;
18190;SDS011;47004;51.366;12.348;2022-07-23T00:57:39;4.83;;;4.30;;
18190;SDS011;47004;51.366;12.348;2022-07-23T00:59:42;5.07;;;4.00;;
18190;SDS011;47004;51.366;12.348;2022-07-23T01:01:44;5.80;;;4.33;;
18190;SDS011;47004;51.366;12.348;2022-07-23T01:03:50;6.10;;;4.37;;
18190;SDS011;47004;51.366;12.348;2022-07-23T01:05:52;5.10;;;4.13;;
18190;SDS011;47004;51.366;12.348;2022-07-23T01:07:54;5.33;;;4.63;;
18190;SDS011;47004;51.366;12.348;2022-07-23T01:09:56;6.37;;;4.20;;
18190;SDS011;47004;51.366;12.348;2022-07-23T01:11:59;5.87;;;4.50;;
18190;SDS011;47004;51.366;12.348;2022-07-23T01:14:07;5.27;;;4.27;;
18190;SDS011;47004;51.366;12.348;2022-07-23T01:16:10;5.17;;;4.33;;
18190;SDS011;47004;51.366;12.348;2022-07-23T01:18:12;6.73;;;4.60;;
18190;SDS011;47004;51.366;12.348;2022-07-23T01:20:15;7.20;;;4.73;;
18190;SDS011;47004;51.366;12.348;2022-07-23T01:22:17;5.63;;;4.43;;
18190;SDS011;47004;51.366;12.348;2022-07-23T01:24:22;5.40;;;4.60;;
18190;SDS011;47004;51.366;12.348;2022-07-23T01:26:24;5.43;;;4.57;;
18190;SDS011;47004;51.366;12.348;2022-07-23T01:28:25;5.77;;;4.90;;
18190;SDS011;47004;51.366;12.348;2022-07-23T01:30:27;6.17;;;4.70;;
18190;SDS011;47004;51.366;12.348;2022-07-23T01:32:29;5.07;;;4.20;;
18190;SDS011;47004;51.366;12.348;2022-07-23T01:34:31;6.30;;;4.63;;
18190;SDS011;47004;51.366;12.348;2022-07-23T01:36:33;5.33;;;4.17;;
18190;SDS011;47004;51.366;12.348;2022-07-23T01:38:36;7.07;;;4.60;;
18190;SDS011;47004;51.366;12.348;2022-07-23T01:40:39;7.07;;;4.67;;
18190;SDS011;47004;51.366;12.348;2022-07-23T01:42:41;6.63;;;4.47;;
18190;SDS011;47004;51.366;12.348;2022-07-23T01:44:43;6.90;;;4.67;;
18190;SDS011;47004;51.366;12.348;2022-07-23T01:46:45;6.33;;;4.60;;
18190;SDS011;47004;51.366;12.348;2022-07-23T01:48:46;6.93;;;4.30;;
18190;SDS011;47004;51.366;12.348;2022-07-23T01:50:48;6.67;;;4.67;;
18190;SDS011;47004;51.366;12.348;2022-07-23T01:52:51;6.00;;;4.70;;
18190;SDS011;47004;51.366;12.348;2022-07-23T01:54:53;6.93;;;4.37;;
18190;SDS011;47004;51.366;12.348;2022-07-23T01:56:58;6.33;;;5.13;;
18190;SDS011;47004;51.366;12.348;2022-07-23T01:59:01;7.17;;;5.20;;
18190;SDS011;47004;51.366;12.348;2022-07-23T02:01:03;8.10;;;4.80;;
18190;SDS011;47004;51.366;12.348;2022-07-23T02:03:05;6.60;;;5.10;;
18190;SDS011;47004;51.366;12.348;2022-07-23T02:05:07;5.33;;;4.50;;
18190;SDS011;47004;51.366;12.348;2022-07-23T02:07:09;5.07;;;4.57;;
18190;SDS011;47004;51.366;12.348;2022-07-23T02:09:11;6.13;;;4.90;;
18190;SDS011;47004;51.366;12.348;2022-07-23T02:11:13;5.83;;;4.50;;
18190;SDS011;47004;51.366;12.348;2022-07-23T02:13:17;7.93;;;4.87;;
18190;SDS011;47004;51.366;12.348;2022-07-23T02:15:19;5.20;;;4.40;;
18190;SDS011;47004;51.366;12.348;2022-07-23T02:17:21;6.60;;;5.23;;
18190;SDS011;47004;51.366;12.348;2022-07-23T02:19:23;5.67;;;4.70;;
18190;SDS011;47004;51.366;12.348;2022-07-23T02:21:25;6.80;;;4.73;;
18190;SDS011;47004;51.366;12.348;2022-07-23T02:23:27;6.37;;;5.13;;
18190;SDS011;47004;51.366;12.348;2022-07-23T02:25:29;6.27;;;4.63;;
18190;SDS011;47004;51.366;12.348;2022-07-23T02:27:31;7.97;;;5.43;;
18190;SDS011;47004;51.366;12.348;2022-07-23T02:29:35;5.80;;;4.93;;
18190;SDS011;47004;51.366;12.348;2022-07-23T02:31:37;7.40;;;5.17;;
18190;SDS011;47004;51.366;12.348;2022-07-23T02:33:38;6.03;;;4.70;;
18190;SDS011;47004;51.366;12.348;2022-07-23T02:35:40;7.27;;;5.43;;
18190;SDS011;47004;51.366;12.348;2022-07-23T02:37:42;7.90;;;5.00;;
18190;SDS011;47004;51.366;12.348;2022-07-23T02:39:44;7.43;;;5.30;;
18190;SDS011;47004;51.366;12.348;2022-07-23T02:41:48;5.80;;;4.83;;
18190;SDS011;47004;51.366;12.348;2022-07-23T02:43:50;7.17;;;5.43;;
18190;SDS011;47004;51.366;12.348;2022-07-23T02:45:53;5.83;;;4.90;;
18190;SDS011;47004;51.366;12.348;2022-07-23T02:47:55;6.17;;;4.70;;
18190;SDS011;47004;51.366;12.348;2022-07-23T02:49:57;7.93;;;4.97;;
18190;SDS011;47004;51.366;12.348;2022-07-23T02:51:59;7.00;;;5.00;;
18190;SDS011;47004;51.366;12.348;2022-07-23T02:54:01;8.47;;;5.57;;
18190;SDS011;47004;51.366;12.348;2022-07-23T02:56:03;7.67;;;5.57;;
18190;SDS011;47004;51.366;12.348;2022-07-23T02:58:05;7.23;;;5.70;;
18190;SDS011;47004;51.366;12.348;2022-07-23T03:00:07;7.47;;;5.73;;
18190;SDS011;47004;51.366;12.348;2022-07-23T03:02:11;9.37;;;4.80;;
18190;SDS011;47004;51.366;12.348;2022-07-23T03:04:16;8.03;;;5.40;;
18190;SDS011;47004;51.366;12.348;2022-07-23T03:06:17;8.77;;;5.90;;
18190;SDS011;47004;51.366;12.348;2022-07-23T03:08:19;6.27;;;5.37;;
18190;SDS011;47004;51.366;12.348;2022-07-23T03:10:21;6.77;;;5.17;;
18190;SDS011;47004;51.366;12.348;2022-07-23T03:12:23;6.30;;;5.23;;
18190;SDS011;47004;51.366;12.348;2022-07-23T03:14:25;7.07;;;5.17;;
18190;SDS011;47004;51.366;12.348;2022-07-23T03:16:27;6.47;;;5.40;;
18190;SDS011;47004;51.366;12.348;2022-07-23T03:18:32;6.90;;;5.40;;
18190;SDS011;47004;51.366;12.348;2022-07-23T03:20:41;7.80;;;5.10;;
18190;SDS011;47004;51.366;12.348;2022-07-23T03:22:43;7.83;;;5.37;;
18190;SDS011;47004;51.366;12.348;2022-07-23T03:24:44;6.73;;;5.20;;
18190;SDS011;47004;51.366;12.348;2022-07-23T03:26:55;8.60;;;5.40;;
18190;SDS011;47004;51.366;12.348;2022-07-23T03:28:57;6.50;;;5.00;;
18190;SDS011;47004;51.366;12.348;2022-07-23T03:31:01;8.03;;;5.40;;
18190;SDS011;47004;51.366;12.348;2022-07-23T03:33:03;7.33;;;5.17;;
18190;SDS011;47004;51.366;12.348;2022-07-23T03:35:06;6.77;;;5.40;;
18190;SDS011;47004;51.366;12.348;2022-07-23T03:37:09;8.00;;;5.27;;
18190;SDS011;47004;51.366;12.348;2022-07-23T03:39:11;6.50;;;4.87;;
18190;SDS011;47004;51.366;12.348;2022-07-23T03:41:13;6.63;;;5.00;;
18190;SDS011;47004;51.366;12.348;2022-07-23T03:43:15;6.30;;;4.97;;
18190;SDS011;47004;51.366;12.348;2022-07-23T03:45:17;7.33;;;4.80;;
18190;SDS011;47004;51.366;12.348;2022-07-23T03:47:18;5.30;;;4.80;;
18190;SDS011;47004;51.366;12.348;2022-07-23T03:49:21;6.80;;;5.13;;
18190;SDS011;47004;51.366;12.348;2022-07-23T03:51:25;5.63;;;4.60;;
18190;SDS011;47004;51.366;12.348;2022-07-23T03:53:26;6.23;;;4.67;;
18190;SDS011;47004;51.366;12.348;2022-07-23T03:55:28;7.37;;;5.10;;
18190;SDS011;47004;51.366;12.348;2022-07-23T03:57:30;6.60;;;4.57;;
18190;SDS011;47004;51.366;12.348;2022-07-23T03:59:32;7.37;;;5.23;;
18190;SDS011;47004;51.366;12.348;2022-07-23T04:01:34;6.10;;;4.63;;
18190;SDS011;47004;51.366;12.348;2022-07-23T04:03:36;5.50;;;4.50;;
18190;SDS011;47004;51.366;12.348;2022-07-23T04:05:38;7.93;;;4.77;;
18190;SDS011;47004;51.366;12.348;2022-07-23T04:07:41;6.37;;;4.73;;
18190;SDS011;47004;51.366;12.348;2022-07-23T04:09:43;7.43;;;5.07;;
18190;SDS011;47004;51.366;12.348;2022-07-23T04:11:45;7.00;;;4.83;;
18190;SDS011;47004;51.366;12.348;2022-07-23T04:13:47;7.33;;;4.70;;
18190;SDS011;47004;51.366;12.348;2022-07-23T04:15:49;7.33;;;4.83;;
18190;SDS011;47004;51.366;12.348;2022-07-23T04:17:51;6.80;;;5.03;;
18190;SDS011;47004;51.366;12.348;2022-07-23T04:19:53;9.23;;;5.00;;
18190;SDS011;47004;51.366;12.348;2022-07-23T04:21:55;8.87;;;5.07;;
18190;SDS011;47004;51.366;12.348;2022-07-23T04:23:59;8.33;;;5.13;;
18190;SDS011;47004;51.366;12.348;2022-07-23T04:26:00;9.40;;;5.50;;
18190;SDS011;47004;51.366;12.348;2022-07-23T04:28:03;10.77;;;5.70;;
18190;SDS011;47004;51.366;12.348;2022-07-23T04:30:05;9.07;;;5.50;;
18190;SDS011;47004;51.366;12.348;2022-07-23T04:32:08;9.80;;;5.60;;
18190;SDS011;47004;51.366;12.348;2022-07-23T04:34:10;9.07;;;5.67;;
18190;SDS011;47004;51.366;12.348;2022-07-23T04:36:12;8.13;;;5.43;;
18190;SDS011;47004;51.366;12.348;2022-07-23T04:38:13;7.90;;;5.43;;
18190;SDS011;47004;51.366;12.348;2022-07-23T04:40:17;11.00;;;6.27;;
18190;SDS011;47004;51.366;12.348;2022-07-23T04:42:19;6.43;;;5.10;;
18190;SDS011;47004;51.366;12.348;2022-07-23T04:44:21;7.87;;;5.87;;
18190;SDS011;47004;51.366;12.348;2022-07-23T04:46:23;7.53;;;5.53;;
18190;SDS011;47004;51.366;12.348;2022-07-23T04:48:25;10.53;;;5.87;;
18190;SDS011;47004;51.366;12.348;2022-07-23T04:50:27;8.50;;;5.33;;
18190;SDS011;47004;51.366;12.348;2022-07-23T04:52:28;9.50;;;6.47;;
18190;SDS011;47004;51.366;12.348;2022-07-23T04:54:30;7.40;;;5.67;;
18190;SDS011;47004;51.366;12.348;2022-07-23T04:56:34;6.80;;;5.90;;
18190;SDS011;47004;51.366;12.348;2022-07-23T04:58:36;7.13;;;5.57;;
18190;SDS011;47004;51.366;12.348;2022-07-23T05:00:38;9.17;;;5.53;;
18190;SDS011;47004;51.366;12.348;2022-07-23T05:02:40;8.23;;;5.63;;
18190;SDS011;47004;51.366;12.348;2022-07-23T05:04:42;10.40;;;6.30;;
18190;SDS011;47004;51.366;12.348;2022-07-23T05:06:43;9.03;;;5.93;;
18190;SDS011;47004;51.366;12.348;2022-07-23T05:08:45;8.93;;;6.03;;
18190;SDS011;47004;51.366;12.348;2022-07-23T05:10:47;8.10;;;5.47;;
18190;SDS011;47004;51.366;12.348;2022-07-23T05:12:51;9.30;;;6.03;;
18190;SDS011;47004;51.366;12.348;2022-07-23T05:14:52;7.03;;;5.63;;
18190;SDS011;47004;51.366;12.348;2022-07-23T05:16:54;10.17;;;6.53;;
18190;SDS011;47004;51.366;12.348;2022-07-23T05:18:56;9.03;;;6.07;;
18190;SDS011;47004;51.366;12.348;2022-07-23T05:20:58;8.37;;;5.90;;
18190;SDS011;47004;51.366;12.348;2022-07-23T05:23:00;8.63;;;5.57;;
18190;SDS011;47004;51.366;12.348;2022-07-23T05:25:02;7.17;;;5.83;;
18190;SDS011;47004;51.366;12.348;2022-07-23T05:27:05;8.97;;;6.10;;
18190;SDS011;47004;51.366;12.348;2022-07-23T05:29:08;8.43;;;5.97;;
18190;SDS011;47004;51.366;12.348;2022-07-23T05:31:10;11.13;;;6.00;;
18190;SDS011;47004;51.366;12.348;2022-07-23T05:33:12;8.63;;;5.97;;
18190;SDS011;47004;51.366;12.348;2022-07-23T05:35:14;9.57;;;6.03;;
18190;SDS011;47004;51.366;12.348;2022-07-23T05:37:16;9.10;;;5.80;;
18190;SDS011;47004;51.366;12.348;2022-07-23T05:39:18;9.13;;;6.10;;
18190;SDS011;47004;51.366;12.348;2022-07-23T05:41:20;8.37;;;6.27;;
18190;SDS011;47004;51.366;12.348;2022-07-23T05:43:22;8.63;;;6.20;;
18190;SDS011;47004;51.366;12.348;2022-07-23T05:45:25;8.73;;;6.00;;
18190;SDS011;47004;51.366;12.348;2022-07-23T05:47:27;9.73;;;6.40;;
18190;SDS011;47004;51.366;12.348;2022-07-23T05:49:29;9.93;;;6.73;;
18190;SDS011;47004;51.366;12.348;2022-07-23T05:51:31;7.67;;;5.77;;
18190;SDS011;47004;51.366;12.348;2022-07-23T05:53:33;8.43;;;6.40;;
18190;SDS011;47004;51.366;12.348;2022-07-23T05:55:36;9.83;;;5.83;;
18190;SDS011;47004;51.366;12.348;2022-07-23T05:57:38;7.37;;;5.63;;
18190;SDS011;47004;51.366;12.348;2022-07-23T05:59:40;8.93;;;6.33;;
18190;SDS011;47004;51.366;12.348;2022-07-23T06:01:43;9.23;;;5.63;;
18190;SDS011;47004;51.366;12.348;2022-07-23T06:03:45;12.60;;;6.93;;
18190;SDS011;47004;51.366;12.348;2022-07-23T06:05:47;8.83;;;5.90;;
18190;SDS011;47004;51.366;12.348;2022-07-23T06:07:49;7.90;;;5.53;;
18190;SDS011;47004;51.366;12.348;2022-07-23T06:09:51;9.07;;;6.07;;
18190;SDS011;47004;51.366;12.348;2022-07-23T06:11:53;8.17;;;6.07;;
18190;SDS011;47004;51.366;12.348;2022-07-23T06:13:54;7.87;;;5.40;;
18190;SDS011;47004;51.366;12.348;2022-07-23T06:15:56;7.37;;;6.00;;
18190;SDS011;47004;51.366;12.348;2022-07-23T06:18:00;8.57;;;5.87;;
18190;SDS011;47004;51.366;12.348;2022-07-23T06:20:02;8.23;;;5.63;;
18190;SDS011;47004;51.366;12.348;2022-07-23T06:22:04;8.00;;;5.77;;
18190;SDS011;47004;51.366;12.348;2022-07-23T06:24:06;7.37;;;5.47;;
18190;SDS011;47004;51.366;12.348;2022-07-23T06:26:08;8.23;;;5.63;;
18190;SDS011;47004;51.366;12.348;2022-07-23T06:28:10;7.27;;;5.60;;
18190;SDS011;47004;51.366;12.348;2022-07-23T06:30:12;8.50;;;5.80;;
18190;SDS011;47004;51.366;12.348;2022-07-23T06:32:16;8.93;;;5.70;;
18190;SDS011;47004;51.366;12.348;2022-07-23T06:34:19;8.77;;;5.60;;
18190;SDS011;47004;51.366;12.348;2022-07-23T06:36:21;7.20;;;5.73;;
18190;SDS011;47004;51.366;12.348;2022-07-23T06:38:23;7.33;;;5.27;;
18190;SDS011;47004;51.366;12.348;2022-07-23T06:40:24;6.93;;;5.63;;
18190;SDS011;47004;51.366;12.348;2022-07-23T06:42:26;6.30;;;5.10;;
18190;SDS011;47004;51.366;12.348;2022-07-23T06:44:28;7.47;;;5.10;;
18190;SDS011;47004;51.366;12.348;2022-07-23T06:46:30;6.83;;;5.13;;
18190;SDS011;47004;51.366;12.348;2022-07-23T06:48:32;8.17;;;5.93;;
18190;SDS011;47004;51.366;12.348;2022-07-23T06:50:37;8.70;;;5.63;;
18190;SDS011;47004;51.366;12.348;2022-07-23T06:52:39;6.47;;;4.97;;
18190;SDS011;47004;51.366;12.348;2022-07-23T06:54:41;6.60;;;4.67;;
18190;SDS011;47004;51.366;12.348;2022-07-23T06:56:42;7.00;;;5.13;;
18190;SDS011;47004;51.366;12.348;2022-07-23T06:58:44;7.93;;;5.17;;
18190;SDS011;47004;51.366;12.348;2022-07-23T07:00:46;8.80;;;4.70;;
18190;SDS011;47004;51.366;12.348;2022-07-23T07:02:48;8.60;;;5.30;;
18190;SDS011;47004;51.366;12.348;2022-07-23T07:04:50;5.87;;;4.90;;
18190;SDS011;47004;51.366;12.348;2022-07-23T07:06:54;6.77;;;5.00;;
18190;SDS011;47004;51.366;12.348;2022-07-23T07:08:56;6.70;;;5.00;;
18190;SDS011;47004;51.366;12.348;2022-07-23T07:10:58;6.53;;;5.37;;
18190;SDS011;47004;51.366;12.348;2022-07-23T07:13:00;6.43;;;4.70;;
18190;SDS011;47004;51.366;12.348;2022-07-23T07:15:02;8.47;;;5.10;;
18190;SDS011;47004;51.366;12.348;2022-07-23T07:17:04;7.37;;;4.87;;
18190;SDS011;47004;51.366;12.348;2022-07-23T07:19:06;6.77;;;5.40;;
18190;SDS011;47004;51.366;12.348;2022-07-23T07:21:08;6.87;;;5.10;;
18190;SDS011;47004;51.366;12.348;2022-07-23T07:23:11;6.97;;;4.90;;
18190;SDS011;47004;51.366;12.348;2022-07-23T07:25:13;6.70;;;5.30;;
18190;SDS011;47004;51.366;12.348;2022-07-23T07:27:15;7.93;;;5.33;;
18190;SDS011;47004;51.366;12.348;2022-07-23T07:29:17;6.10;;;4.67;;
18190;SDS011;47004;51.366;12.348;2022-07-23T07:31:19;6.83;;;5.00;;
18190;SDS011;47004;51.366;12.348;2022-07-23T07:33:21;8.20;;;5.43;;
18190;SDS011;47004;51.366;12.348;2022-07-23T07:35:23;8.27;;;5.57;;
18190;SDS011;47004;51.366;12.348;2022-07-23T07:37:25;7.77;;;5.60;;
18190;SDS011;47004;51.366;12.348;2022-07-23T07:39:28;9.77;;;6.13;;
18190;SDS011;47004;51.366;12.348;2022-07-23T07:41:30;8.77;;;6.00;;
18190;SDS011;47004;51.366;12.348;2022-07-23T07:43:32;6.73;;;5.37;;
18190;SDS011;47004;51.366;12.348;2022-07-23T07:45:34;10.13;;;6.27;;
18190;SDS011;47004;51.366;12.348;2022-07-23T07:47:36;7.47;;;5.87;;
18190;SDS011;47004;51.366;12.348;2022-07-23T07:49:38;8.17;;;5.97;;
18190;SDS011;47004;51.366;12.348;2022-07-23T07:51:40;9.07;;;6.10;;
18190;SDS011;47004;51.366;12.348;2022-07-23T07:53:41;9.57;;;6.13;;
18190;SDS011;47004;51.366;12.348;2022-07-23T07:55:45;8.30;;;5.97;;
18190;SDS011;47004;51.366;12.348;2022-07-23T07:57:47;8.70;;;6.47;;
18190;SDS011;47004;51.366;12.348;2022-07-23T07:59:49;8.20;;;5.97;;
18190;SDS011;47004;51.366;12.348;2022-07-23T08:01:51;8.17;;;6.43;;
18190;SDS011;47004;51.366;12.348;2022-07-23T08:03:53;8.47;;;5.87;;
18190;SDS011;47004;51.366;12.348;2022-07-23T08:05:55;8.30;;;5.80;;
18190;SDS011;47004;51.366;12.348;2022-07-23T08:07:57;8.53;;;6.20;;
18190;SDS011;47004;51.366;12.348;2022-07-23T08:09:59;8.37;;;6.27;;
18190;SDS011;47004;51.366;12.348;2022-07-23T08:12:03;8.50;;;6.33;;
18190;SDS011;47004;51.366;12.348;2022-07-23T08:14:05;8.53;;;6.57;;
18190;SDS011;47004;51.366;12.348;2022-07-23T08:16:07;10.27;;;7.23;;
18190;SDS011;47004;51.366;12.348;2022-07-23T08:18:09;10.40;;;7.77;;
18190;SDS011;47004;51.366;12.348;2022-07-23T08:20:11;10.77;;;7.13;;
18190;SDS011;47004;51.366;12.348;2022-07-23T08:22:14;8.57;;;6.70;;
18190;SDS011;47004;51.366;12.348;2022-07-23T08:24:16;10.57;;;7.73;;
18190;SDS011;47004;51.366;12.348;2022-07-23T08:26:18;9.93;;;7.17;;
18190;SDS011;47004;51.366;12.348;2022-07-23T08:28:21;10.60;;;7.83;;
18190;SDS011;47004;51.366;12.348;2022-07-23T08:30:23;11.77;;;7.97;;
18190;SDS011;47004;51.366;12.348;2022-07-23T08:32:25;10.87;;;8.13;;
18190;SDS011;47004;51.366;12.348;2022-07-23T08:34:27;11.67;;;8.40;;
18190;SDS011;47004;51.366;12.348;2022-07-23T08:36:29;11.20;;;8.10;;
18190;SDS011;47004;51.366;12.348;2022-07-23T08:38:32;11.60;;;8.07;;
18190;SDS011;47004;51.366;12.348;2022-07-23T08:40:36;11.40;;;9.37;;
18190;SDS011;47004;51.366;12.348;2022-07-23T08:42:38;11.40;;;8.67;;
18190;SDS011;47004;51.366;12.348;2022-07-23T08:44:43;10.97;;;8.37;;
18190;SDS011;47004;51.366;12.348;2022-07-23T08:46:46;11.60;;;8.57;;
18190;SDS011;47004;51.366;12.348;2022-07-23T08:48:49;10.90;;;8.70;;
18190;SDS011;47004;51.366;12.348;2022-07-23T08:50:52;11.47;;;8.87;;
18190;SDS011;47004;51.366;12.348;2022-07-23T08:52:56;10.23;;;8.63;;
18190;SDS011;47004;51.366;12.348;2022-07-23T08:55:03;11.57;;;9.30;;
18190;SDS011;47004;51.366;12.348;2022-07-23T08:57:05;12.80;;;8.70;;
18190;SDS011;47004;51.366;12.348;2022-07-23T08:59:07;10.37;;;8.00;;
18190;SDS011;47004;51.366;12.348;2022-07-23T09:01:10;9.17;;;7.37;;
18190;SDS011;47004;51.366;12.348;2022-07-23T09:03:14;10.83;;;7.57;;
18190;SDS011;47004;51.366;12.348;2022-07-23T09:05:18;10.80;;;7.47;;
18190;SDS011;47004;51.366;12.348;2022-07-23T09:07:20;9.70;;;7.20;;
18190;SDS011;47004;51.366;12.348;2022-07-23T09:09:22;11.97;;;7.63;;
18190;SDS011;47004;51.366;12.348;2022-07-23T09:11:30;8.90;;;7.63;;
18190;SDS011;47004;51.366;12.348;2022-07-23T09:13:33;10.73;;;8.43;;
18190;SDS011;47004;51.366;12.348;2022-07-23T09:15:38;11.17;;;8.27;;
18190;SDS011;47004;51.366;12.348;2022-07-23T09:17:51;11.37;;;8.23;;
18190;SDS011;47004;51.366;12.348;2022-07-23T09:19:54;11.37;;;8.57;;
18190;SDS011;47004;51.366;12.348;2022-07-23T09:22:19;11.60;;;8.73;;
18190;SDS011;47004;51.366;12.348;2022-07-23T09:24:22;9.70;;;8.53;;
18190;SDS011;47004;51.366;12.348;2022-07-23T09:26:25;11.43;;;8.57;;
18190;SDS011;47004;51.366;12.348;2022-07-23T09:28:31;10.80;;;8.07;;
18190;SDS011;47004;51.366;12.348;2022-07-23T09:30:33;11.93;;;8.70;;
18190;SDS011;47004;51.366;12.348;2022-07-23T09:32:35;13.87;;;8.83;;
18190;SDS011;47004;51.366;12.348;2022-07-23T09:34:38;10.77;;;8.43;;
18190;SDS011;47004;51.366;12.348;2022-07-23T09:36:40;11.73;;;8.10;;
18190;SDS011;47004;51.366;12.348;2022-07-23T09:38:50;13.73;;;7.67;;
18190;SDS011;47004;51.366;12.348;2022-07-23T09:41:05;9.13;;;7.63;;
18190;SDS011;47004;51.366;12.348;2022-07-23T09:43:07;10.07;;;7.37;;
18190;SDS011;47004;51.366;12.348;2022-07-23T09:45:10;8.80;;;7.13;;
18190;SDS011;47004;51.366;12.348;2022-07-23T09:47:12;10.73;;;7.30;;
18190;SDS011;47004;51.366;12.348;2022-07-23T09:49:15;9.73;;;7.10;;
18190;SDS011;47004;51.366;12.348;2022-07-23T09:51:20;9.40;;;7.13;;
18190;SDS011;47004;51.366;12.348;2022-07-23T09:53:26;10.97;;;6.93;;
18190;SDS011;47004;51.366;12.348;2022-07-23T09:55:31;8.97;;;6.63;;
18190;SDS011;47004;51.366;12.348;2022-07-23T09:57:36;9.93;;;6.30;;
18190;SDS011;47004;51.366;12.348;2022-07-23T09:59:39;8.27;;;6.20;;
18190;SDS011;47004;51.366;12.348;2022-07-23T10:01:42;9.67;;;6.20;;
18190;SDS011;47004;51.366;12.348;2022-07-23T10:03:44;8.97;;;5.87;;
18190;SDS011;47004;51.366;12.348;2022-07-23T10:05:47;9.03;;;6.50;;
18190;SDS011;47004;51.366;12.348;2022-07-23T10:07:52;9.60;;;6.27;;
18190;SDS011;47004;51.366;12.348;2022-07-23T10:09:55;8.43;;;6.10;;
18190;SDS011;47004;51.366;12.348;2022-07-23T10:12:00;8.67;;;5.97;;
18190;SDS011;47004;51.366;12.348;2022-07-23T10:14:11;8.30;;;6.33;;
18190;SDS011;47004;51.366;12.348;2022-07-23T10:16:12;7.53;;;5.73;;
18190;SDS011;47004;51.366;12.348;2022-07-23T10:18:14;8.07;;;5.80;;
18190;SDS011;47004;51.366;12.348;2022-07-23T10:20:16;8.67;;;6.77;;
18190;SDS011;47004;51.366;12.348;2022-07-23T10:22:19;8.97;;;6.53;;
18190;SDS011;47004;51.366;12.348;2022-07-23T10:24:28;8.70;;;5.80;;
18190;SDS011;47004;51.366;12.348;2022-07-23T10:26:47;9.43;;;6.67;;
18190;SDS011;47004;51.366;12.348;2022-07-23T10:29:01;10.53;;;6.00;;
18190;SDS011;47004;51.366;12.348;2022-07-23T10:31:10;10.83;;;6.67;;
18190;SDS011;47004;51.366;12.348;2022-07-23T10:33:24;10.27;;;6.57;;
18190;SDS011;47004;51.366;12.348;2022-07-23T10:35:36;8.20;;;6.50;;
18190;SDS011;47004;51.366;12.348;2022-07-23T10:37:45;12.63;;;8.00;;
18190;SDS011;47004;51.366;12.348;2022-07-23T10:42:13;12.90;;;8.23;;
18190;SDS011;47004;51.366;12.348;2022-07-23T10:44:18;9.70;;;7.50;;
18190;SDS011;47004;51.366;12.348;2022-07-23T10:46:24;11.07;;;7.43;;
18190;SDS011;47004;51.366;12.348;2022-07-23T10:48:33;10.70;;;7.67;;
18190;SDS011;47004;51.366;12.348;2022-07-23T10:50:35;12.37;;;7.80;;
18190;SDS011;47004;51.366;12.348;2022-07-23T10:52:37;9.63;;;7.33;;
18190;SDS011;47004;51.366;12.348;2022-07-23T10:54:39;11.00;;;7.90;;
18190;SDS011;47004;51.366;12.348;2022-07-23T10:57:04;9.50;;;7.93;;
18190;SDS011;47004;51.366;12.348;2022-07-23T10:59:07;11.10;;;8.10;;
18190;SDS011;47004;51.366;12.348;2022-07-23T11:03:34;11.60;;;8.40;;
18190;SDS011;47004;51.366;12.348;2022-07-23T11:05:40;10.90;;;7.80;;
18190;SDS011;47004;51.366;12.348;2022-07-23T11:10:31;10.67;;;8.30;;
18190;SDS011;47004;51.366;12.348;2022-07-23T11:12:35;12.97;;;8.93;;
18190;SDS011;47004;51.366;12.348;2022-07-23T11:17:01;14.63;;;9.43;;
18190;SDS011;47004;51.366;12.348;2022-07-23T11:19:19;12.57;;;8.67;;
18190;SDS011;47004;51.366;12.348;2022-07-23T11:26:02;12.63;;;8.87;;
18190;SDS011;47004;51.366;12.348;2022-07-23T11:28:15;11.97;;;8.53;;
18190;SDS011;47004;51.366;12.348;2022-07-23T11:32:39;11.13;;;7.73;;
18190;SDS011;47004;51.366;12.348;2022-07-23T11:34:43;9.80;;;7.70;;
18190;SDS011;47004;51.366;12.348;2022-07-23T11:36:50;10.77;;;8.37;;
18190;SDS011;47004;51.366;12.348;2022-07-23T11:38:52;10.43;;;7.90;;
18190;SDS011;47004;51.366;12.348;2022-07-23T11:40:55;9.87;;;8.00;;
18190;SDS011;47004;51.366;12.348;2022-07-23T11:42:58;9.57;;;7.20;;
18190;SDS011;47004;51.366;12.348;2022-07-23T11:45:02;9.93;;;7.53;;
18190;SDS011;47004;51.366;12.348;2022-07-23T11:47:06;10.63;;;7.90;;
18190;SDS011;47004;51.366;12.348;2022-07-23T11:49:09;11.20;;;8.10;;
18190;SDS011;47004;51.366;12.348;2022-07-23T11:51:11;9.37;;;8.07;;
18190;SDS011;47004;51.366;12.348;2022-07-23T11:53:27;10.20;;;7.87;;
18190;SDS011;47004;51.366;12.348;2022-07-23T11:55:30;9.13;;;7.70;;
18190;SDS011;47004;51.366;12.348;2022-07-23T11:57:33;9.77;;;8.20;;
18190;SDS011;47004;51.366;12.348;2022-07-23T11:59:36;10.87;;;8.63;;
18190;SDS011;47004;51.366;12.348;2022-07-23T12:01:44;11.50;;;8.50;;
18190;SDS011;47004;51.366;12.348;2022-07-23T12:03:57;13.20;;;9.87;;
18190;SDS011;47004;51.366;12.348;2022-07-23T12:05:59;11.20;;;9.03;;
18190;SDS011;47004;51.366;12.348;2022-07-23T12:08:02;12.97;;;8.83;;
18190;SDS011;47004;51.366;12.348;2022-07-23T12:10:09;11.70;;;9.10;;
18190;SDS011;47004;51.366;12.348;2022-07-23T12:12:12;10.53;;;8.67;;
18190;SDS011;47004;51.366;12.348;2022-07-23T12:14:14;12.53;;;9.27;;
18190;SDS011;47004;51.366;12.348;2022-07-23T12:16:16;11.13;;;9.03;;
18190;SDS011;47004;51.366;12.348;2022-07-23T12:18:21;11.33;;;8.83;;
18190;SDS011;47004;51.366;12.348;2022-07-23T12:20:25;11.87;;;9.67;;
18190;SDS011;47004;51.366;12.348;2022-07-23T12:22:33;10.83;;;8.63;;
18190;SDS011;47004;51.366;12.348;2022-07-23T12:27:08;12.83;;;9.57;;